Time;durP1;ratioP1;P1;durP2;ratioP2;P2;SDS_P1;SDS_P2;PMS_P1;PMS_P2;Temp;Humidity;BMP_temperature;BMP_pressure;BME280_temperature;BME280_humidity;BME280_pressure;Samples;Min_cycle;Max_cycle;Signal;HPM_P1;HPM_P2
2023/11/15 00:01:43;;;;;;;13.10;1.95;;;8.90;99.90;;;;;;4915852;29;20057;-84
2023/11/15 00:04:10;;;;;;;4.90;1.63;;;8.70;99.90;;;;;;4916158;29;20132;-84
2023/11/15 00:06:37;;;;;;;8.57;1.88;;;8.90;99.90;;;;;;4925254;29;20115;-84
2023/11/15 00:09:05;;;;;;;8.15;1.83;;;9.40;99.90;;;;;;4935134;29;20091;-84
2023/11/15 00:11:33;;;;;;;8.38;2.20;;;8.70;99.90;;;;;;4934634;29;20424;-84
2023/11/15 00:14:00;;;;;;;8.73;2.10;;;8.70;99.90;;;;;;4922450;29;20063;-84
2023/11/15 00:16:27;;;;;;;8.05;1.67;;;8.70;99.90;;;;;;4923248;29;20045;-84
2023/11/15 00:18:54;;;;;;;7.05;1.73;;;8.70;99.90;;;;;;4934629;29;20040;-83
2023/11/15 00:21:21;;;;;;;9.38;1.90;;;8.70;99.90;;;;;;4930610;29;20043;-84
2023/11/15 00:23:48;;;;;;;10.25;1.73;;;8.70;99.90;;;;;;4926189;29;20097;-84
2023/11/15 00:26:14;;;;;;;7.78;2.20;;;8.70;99.90;;;;;;4929919;29;20087;-84
2023/11/15 00:28:41;;;;;;;5.47;1.40;;;8.80;99.90;;;;;;4930949;29;20055;-84
2023/11/15 00:31:09;;;;;;;6.70;1.80;;;8.70;99.90;;;;;;4920464;29;20515;-84
2023/11/15 00:33:35;;;;;;;10.20;1.92;;;8.80;99.90;;;;;;4918377;29;20141;-84
2023/11/15 00:36:02;;;;;;;5.05;1.50;;;8.70;99.90;;;;;;4917924;29;20117;-84
2023/11/15 00:38:29;;;;;;;9.77;1.58;;;8.70;99.90;;;;;;4930905;29;20045;-84
2023/11/15 00:40:57;;;;;;;5.72;1.25;;;9.30;99.90;;;;;;4915536;29;20044;-84
2023/11/15 00:43:24;;;;;;;9.32;2.05;;;8.70;99.90;;;;;;4933007;29;20126;-84
2023/11/15 00:45:51;;;;;;;4.50;1.50;;;9.00;99.90;;;;;;4925124;29;20517;-84
2023/11/15 00:48:17;;;;;;;8.95;2.42;;;9.50;99.90;;;;;;4915024;29;20501;-84
2023/11/15 00:50:44;;;;;;;6.97;1.50;;;8.90;99.90;;;;;;4909532;29;20052;-84
2023/11/15 00:53:13;;;;;;;7.60;1.77;;;8.70;99.90;;;;;;4930717;29;20124;-83
2023/11/15 00:55:39;;;;;;;4.07;1.55;;;9.50;99.90;;;;;;4925214;29;20826;-84
2023/11/15 00:58:09;;;;;;;5.68;1.60;;;8.50;99.90;;;;;;4916458;29;20045;-84
2023/11/15 01:00:44;;;;;;;5.05;1.35;;;8.80;99.90;;;;;;4915114;29;20603;-84
2023/11/15 01:03:25;;;;;;;;;;;8.60;99.90;;;;;;4928141;29;20059;-84
2023/11/15 01:06:01;;;;;;;5.68;1.52;;;8.60;99.90;;;;;;4932706;29;19967;-84
2023/11/15 01:08:27;;;;;;;7.13;1.40;;;8.50;99.90;;;;;;4939980;29;20040;-84
2023/11/15 01:10:57;;;;;;;5.88;1.88;;;8.80;99.90;;;;;;4914476;29;20040;-84
2023/11/15 01:13:23;;;;;;;4.35;1.40;;;8.50;99.90;;;;;;4930905;29;20037;-84
2023/11/15 01:15:51;;;;;;;4.85;1.65;;;8.50;99.90;;;;;;4943366;29;20041;-84
2023/11/15 01:18:19;;;;;;;6.47;1.63;;;8.60;99.90;;;;;;4920636;29;20470;-84
2023/11/15 01:20:46;;;;;;;8.05;1.60;;;8.50;99.90;;;;;;4930445;29;20135;-84
2023/11/15 01:23:13;;;;;;;4.55;1.50;;;8.10;99.90;;;;;;4914897;29;20132;-83
2023/11/15 01:25:39;;;;;;;6.38;1.42;;;8.50;99.90;;;;;;4920834;29;20462;-84
2023/11/15 01:28:06;;;;;;;6.85;1.48;;;9.10;99.90;;;;;;4930279;29;20123;-84
2023/11/15 01:30:32;;;;;;;5.93;1.50;;;8.50;99.90;;;;;;4915089;29;20045;-84
2023/11/15 01:32:59;;;;;;;9.50;1.42;;;8.50;99.90;;;;;;4930293;29;20786;-84
2023/11/15 01:35:26;;;;;;;3.97;1.60;;;8.60;99.90;;;;;;4942622;29;20048;-84
2023/11/15 01:37:53;;;;;;;8.32;1.67;;;8.50;99.90;;;;;;4941705;29;20051;-84
2023/11/15 01:40:20;;;;;;;12.90;1.90;;;9.20;99.90;;;;;;4915443;29;20517;-84
2023/11/15 01:42:48;;;;;;;6.35;1.58;;;8.60;99.90;;;;;;4914529;29;20045;-84
2023/11/15 01:45:15;;;;;;;4.03;1.55;;;8.50;99.90;;;;;;4929493;29;20045;-84
2023/11/15 01:47:43;;;;;;;6.45;1.83;;;8.50;99.90;;;;;;4920712;29;20053;-83
2023/11/15 01:50:13;;;;;;;6.10;1.50;;;8.40;99.90;;;;;;4914513;29;20092;-84
2023/11/15 01:52:45;;;;;;;5.90;1.30;;;8.40;99.90;;;;;;4916115;29;20051;-84
2023/11/15 01:55:15;;;;;;;5.90;1.60;;;8.40;99.90;;;;;;4924546;29;20042;-84
2023/11/15 01:57:42;;;;;;;5.03;1.63;;;8.40;99.90;;;;;;4914651;29;20044;-84
2023/11/15 02:00:10;;;;;;;9.13;1.60;;;8.40;99.90;;;;;;4914516;29;20060;-84
2023/11/15 02:02:38;;;;;;;7.45;1.80;;;8.40;99.90;;;;;;4917475;29;20043;-84
2023/11/15 02:05:05;;;;;;;5.97;1.60;;;8.40;99.90;;;;;;4914914;29;20041;-84
2023/11/15 02:07:32;;;;;;;5.60;1.60;;;8.40;99.90;;;;;;4926790;29;20127;-84
2023/11/15 02:10:00;;;;;;;7.50;1.73;;;8.40;99.90;;;;;;4915368;29;20119;-84
2023/11/15 02:12:27;;;;;;;7.70;1.55;;;8.40;99.90;;;;;;4924176;29;20060;-82
2023/11/15 02:14:54;;;;;;;5.90;1.73;;;8.40;99.90;;;;;;4936587;29;20036;-84
2023/11/15 02:17:22;;;;;;;10.18;1.40;;;8.40;99.90;;;;;;4919037;29;20041;-84
2023/11/15 02:19:49;;;;;;;4.07;1.30;;;8.40;99.90;;;;;;4933355;29;20087;-84
2023/11/15 02:22:16;;;;;;;9.25;1.70;;;8.40;99.90;;;;;;4933467;29;20076;-84
2023/11/15 02:24:44;;;;;;;8.25;1.73;;;8.40;99.90;;;;;;4917754;29;20055;-84
2023/11/15 02:27:11;;;;;;;5.72;1.48;;;8.30;99.90;;;;;;4933663;29;20406;-84
2023/11/15 02:29:39;;;;;;;4.82;1.40;;;8.30;99.90;;;;;;4918464;29;20557;-84
2023/11/15 02:32:06;;;;;;;10.73;1.70;;;8.30;99.90;;;;;;4928887;29;20048;-84
2023/11/15 02:34:33;;;;;;;4.22;1.35;;;8.30;99.90;;;;;;4928519;29;20761;-84
2023/11/15 02:37:00;;;;;;;9.35;1.55;;;8.30;99.90;;;;;;4931722;29;20048;-84
2023/11/15 02:39:27;;;;;;;3.67;1.50;;;8.30;99.90;;;;;;4925081;29;20093;-84
2023/11/15 02:41:53;;;;;;;4.53;1.40;;;8.20;99.90;;;;;;4938574;29;20122;-84
2023/11/15 02:44:20;;;;;;;6.28;1.60;;;8.20;99.90;;;;;;4913030;29;20128;-84
2023/11/15 02:46:47;;;;;;;8.63;1.60;;;8.20;99.90;;;;;;4916955;29;20052;-84
2023/11/15 02:49:13;;;;;;;8.07;1.35;;;8.90;99.90;;;;;;4917517;29;20406;-85
2023/11/15 02:51:40;;;;;;;7.03;1.65;;;8.20;99.90;;;;;;4929578;29;20137;-84
2023/11/15 02:54:06;;;;;;;6.93;1.27;;;8.20;99.90;;;;;;4933274;29;20072;-84
2023/11/15 02:56:33;;;;;;;6.63;1.80;;;8.30;99.90;;;;;;4935991;29;20091;-84
2023/11/15 02:59:00;;;;;;;5.80;1.42;;;8.30;99.90;;;;;;4934366;29;20043;-84
2023/11/15 03:01:26;;;;;;;5.07;1.20;;;8.20;99.90;;;;;;4913157;29;20139;-84
2023/11/15 03:03:53;;;;;;;6.47;1.60;;;8.30;99.90;;;;;;4923495;29;20513;-84
2023/11/15 03:06:19;;;;;;;10.05;1.80;;;8.20;99.90;;;;;;4951625;29;20044;-84
2023/11/15 03:08:47;;;;;;;5.82;1.60;;;8.20;99.90;;;;;;4939440;29;20055;-84
2023/11/15 03:11:13;;;;;;;6.63;1.55;;;8.60;99.90;;;;;;4927480;29;20048;-84
2023/11/15 03:13:40;;;;;;;6.72;1.55;;;8.30;99.90;;;;;;4918397;29;20048;-84
2023/11/15 03:16:07;;;;;;;11.48;1.50;;;8.20;99.90;;;;;;4926877;29;20047;-84
2023/11/15 03:18:33;;;;;;;7.05;1.70;;;8.20;99.90;;;;;;4916519;29;20458;-85
2023/11/15 03:21:00;;;;;;;4.85;1.50;;;8.20;99.90;;;;;;4933219;29;20051;-84
2023/11/15 03:23:27;;;;;;;4.00;1.30;;;8.20;99.90;;;;;;4927761;29;20044;-84
2023/11/15 03:25:54;;;;;;;5.97;1.48;;;8.90;99.90;;;;;;4946399;29;20044;-84
2023/11/15 03:28:20;;;;;;;7.25;1.50;;;8.40;99.90;;;;;;4943013;29;20132;-84
2023/11/15 03:30:47;;;;;;;9.73;1.90;;;8.30;99.90;;;;;;4929045;29;20478;-85
2023/11/15 03:33:14;;;;;;;4.97;1.60;;;8.30;99.90;;;;;;4929083;29;20040;-84
2023/11/15 03:35:40;;;;;;;7.13;1.80;;;9.10;99.90;;;;;;4916893;29;20083;-84
2023/11/15 03:38:07;;;;;;;5.47;1.30;;;9.00;99.90;;;;;;4931765;29;20044;-84
2023/11/15 03:40:34;;;;;;;10.27;1.77;;;8.40;99.90;;;;;;4924022;29;20048;-84
2023/11/15 03:43:01;;;;;;;5.60;1.40;;;8.30;99.90;;;;;;4933986;29;20048;-84
2023/11/15 03:45:27;;;;;;;7.53;1.42;;;8.40;99.90;;;;;;4916584;29;20044;-84
2023/11/15 03:47:54;;;;;;;6.65;1.50;;;8.30;99.90;;;;;;4931695;29;20059;-84
2023/11/15 03:50:20;;;;;;;4.57;1.42;;;8.30;99.90;;;;;;4916158;29;20085;-84
2023/11/15 03:52:47;;;;;;;7.85;1.70;;;8.30;99.90;;;;;;4944718;29;20044;-84
2023/11/15 03:55:14;;;;;;;5.57;1.50;;;9.10;99.90;;;;;;4931949;29;20040;-84
2023/11/15 03:57:42;;;;;;;7.07;1.48;;;8.40;99.90;;;;;;4928653;29;20530;-84
2023/11/15 04:00:10;;;;;;;5.80;1.42;;;8.30;99.90;;;;;;4931741;29;20056;-84
2023/11/15 04:02:37;;;;;;;5.85;1.20;;;8.40;99.90;;;;;;4919934;29;20055;-84
2023/11/15 04:05:05;;;;;;;7.15;1.40;;;8.30;99.90;;;;;;4924428;29;20049;-84
2023/11/15 04:07:33;;;;;;;3.80;1.35;;;8.30;99.90;;;;;;4916150;29;20486;-84
2023/11/15 04:09:59;;;;;;;4.90;1.50;;;8.30;99.90;;;;;;4923335;29;20493;-84
2023/11/15 04:12:26;;;;;;;7.72;1.50;;;8.30;99.90;;;;;;4916080;29;20029;-84
2023/11/15 04:14:53;;;;;;;5.60;1.40;;;8.30;99.90;;;;;;4919786;29;20136;-84
2023/11/15 04:17:19;;;;;;;4.07;1.50;;;8.50;99.90;;;;;;4918773;29;20048;-84
2023/11/15 04:19:46;;;;;;;6.50;1.73;;;8.20;99.90;;;;;;4931054;29;20049;-84
2023/11/15 04:22:13;;;;;;;5.72;1.75;;;8.70;99.90;;;;;;4926619;29;20131;-84
2023/11/15 04:24:40;;;;;;;6.05;1.60;;;8.50;99.90;;;;;;4917403;29;20041;-84
2023/11/15 04:27:07;;;;;;;6.03;1.98;;;8.20;99.90;;;;;;4915748;29;20072;-84
2023/11/15 04:29:33;;;;;;;4.28;1.50;;;8.10;99.90;;;;;;4928009;29;20047;-84
2023/11/15 04:32:00;;;;;;;2.88;1.48;;;8.30;99.90;;;;;;4915691;29;20426;-84
2023/11/15 04:34:27;;;;;;;6.30;1.80;;;8.10;99.90;;;;;;4914686;29;20044;-84
2023/11/15 04:36:53;;;;;;;8.40;1.80;;;8.20;99.90;;;;;;4906818;29;20048;-84
2023/11/15 04:39:20;;;;;;;6.20;1.70;;;8.20;99.90;;;;;;4950305;29;20044;-84
2023/11/15 04:41:48;;;;;;;5.53;1.60;;;8.10;99.90;;;;;;4917807;29;20495;-84
2023/11/15 04:44:14;;;;;;;4.47;1.92;;;8.10;99.90;;;;;;4915351;29;20040;-84
2023/11/15 04:46:41;;;;;;;6.07;1.80;;;8.10;99.90;;;;;;4932827;29;20405;-84
2023/11/15 04:49:08;;;;;;;5.82;2.05;;;8.20;99.90;;;;;;4933780;29;20032;-84
2023/11/15 04:51:35;;;;;;;8.63;2.10;;;8.20;99.90;;;;;;4915480;29;20081;-84
2023/11/15 04:54:01;;;;;;;6.07;1.92;;;8.40;99.90;;;;;;4925374;29;20118;-84
2023/11/15 04:56:28;;;;;;;6.15;1.80;;;8.20;99.90;;;;;;4941994;29;20123;-84
2023/11/15 04:58:55;;;;;;;5.45;1.70;;;8.10;99.90;;;;;;4915180;29;20040;-84
2023/11/15 05:01:21;;;;;;;4.70;1.88;;;8.50;99.90;;;;;;4914388;29;20497;-84
2023/11/15 05:03:48;;;;;;;6.55;1.92;;;8.10;99.90;;;;;;4946471;29;20051;-84
2023/11/15 05:06:15;;;;;;;6.22;2.13;;;8.40;99.90;;;;;;4934437;29;20130;-84
2023/11/15 05:08:41;;;;;;;4.30;1.90;;;8.10;99.90;;;;;;4932012;29;20553;-84
2023/11/15 05:11:08;;;;;;;5.32;1.90;;;8.10;99.90;;;;;;4918183;29;20093;-84
2023/11/15 05:13:35;;;;;;;5.65;1.75;;;8.50;99.90;;;;;;4924794;29;20125;-84
2023/11/15 05:16:03;;;;;;;9.68;1.90;;;8.00;99.90;;;;;;4921438;29;20036;-84
2023/11/15 05:18:30;;;;;;;6.30;1.80;;;7.90;99.90;;;;;;4923088;29;20049;-84
2023/11/15 05:20:57;;;;;;;6.00;1.70;;;8.00;99.90;;;;;;4939134;29;20512;-84
2023/11/15 05:23:23;;;;;;;7.22;1.75;;;7.90;99.90;;;;;;4922840;29;20410;-85
2023/11/15 05:25:50;;;;;;;5.35;1.85;;;8.30;99.90;;;;;;4914658;29;20052;-84
2023/11/15 05:28:20;;;;;;;4.30;2.03;;;7.80;99.90;;;;;;4915500;29;20055;-85
2023/11/15 05:30:47;;;;;;;5.65;1.85;;;7.80;99.90;;;;;;4914798;29;20048;-84
2023/11/15 05:33:14;;;;;;;6.38;2.40;;;7.80;99.90;;;;;;4908518;29;20120;-85
2023/11/15 05:35:41;;;;;;;3.95;1.92;;;8.30;99.90;;;;;;4930453;29;20124;-84
2023/11/15 05:38:08;;;;;;;4.68;2.25;;;7.80;99.90;;;;;;4914612;29;20132;-84
2023/11/15 05:40:35;;;;;;;5.13;2.05;;;7.80;99.90;;;;;;4914699;29;20559;-84
2023/11/15 05:43:02;;;;;;;4.75;2.30;;;7.80;99.90;;;;;;4914532;29;20044;-84
2023/11/15 05:45:28;;;;;;;7.40;2.35;;;7.80;99.90;;;;;;4916808;29;20049;-84
2023/11/15 05:47:55;;;;;;;5.35;2.35;;;7.80;99.90;;;;;;4930660;29;20044;-84
2023/11/15 05:50:22;;;;;;;7.07;2.25;;;7.80;99.90;;;;;;4942393;29;20056;-84
2023/11/15 05:52:48;;;;;;;4.50;1.92;;;7.70;99.90;;;;;;4938040;29;20500;-84
2023/11/15 05:55:15;;;;;;;4.78;2.15;;;8.00;99.90;;;;;;4918494;29;20180;-84
2023/11/15 05:57:42;;;;;;;8.90;2.45;;;7.70;99.90;;;;;;4946289;29;20048;-84
2023/11/15 06:00:20;;;;;;;6.28;2.65;;;7.70;99.90;;;;;;4927334;29;20139;-84
2023/11/15 06:02:47;;;;;;;10.02;2.72;;;7.70;99.90;;;;;;4919984;29;20045;-84
2023/11/15 06:05:16;;;;;;;6.68;2.55;;;7.70;99.90;;;;;;4934121;29;20127;-84
2023/11/15 06:07:43;;;;;;;5.65;2.70;;;7.70;99.90;;;;;;4933948;29;20057;-84
2023/11/15 06:10:11;;;;;;;10.60;2.92;;;7.70;99.90;;;;;;4930307;29;20041;-84
2023/11/15 06:12:40;;;;;;;8.50;2.80;;;8.40;99.90;;;;;;4930962;29;20058;-84
2023/11/15 06:15:11;;;;;;;6.72;2.55;;;7.80;99.90;;;;;;4934355;29;20096;-84
2023/11/15 06:17:41;;;;;;;8.38;2.80;;;7.80;99.90;;;;;;4929389;29;20100;-84
2023/11/15 06:20:14;;;;;;;6.32;2.78;;;7.80;99.90;;;;;;4921658;29;20048;-84
2023/11/15 06:22:41;;;;;;;10.20;3.10;;;7.90;99.90;;;;;;4917971;29;20037;-84
2023/11/15 06:25:08;;;;;;;7.80;2.75;;;7.90;99.90;;;;;;4920632;29;20037;-84
2023/11/15 06:27:37;;;;;;;9.30;2.88;;;8.10;99.90;;;;;;4933883;29;20052;-84
2023/11/15 06:30:08;;;;;;;7.65;3.38;;;8.60;99.90;;;;;;4917472;29;20127;-84
2023/11/15 06:32:35;;;;;;;5.35;2.80;;;7.90;99.90;;;;;;4925987;29;20040;-84
2023/11/15 06:35:02;;;;;;;7.65;3.03;;;8.10;99.90;;;;;;4936674;29;20039;-84
2023/11/15 06:37:29;;;;;;;9.57;3.50;;;8.00;99.90;;;;;;4936467;29;20493;-84
2023/11/15 06:39:56;;;;;;;9.88;3.20;;;8.00;99.90;;;;;;4937382;29;20051;-84
2023/11/15 06:42:23;;;;;;;9.75;3.20;;;7.90;99.90;;;;;;4917491;29;20040;-84
2023/11/15 06:44:50;;;;;;;9.05;3.20;;;8.00;99.90;;;;;;4917307;29;20047;-84
2023/11/15 06:47:16;;;;;;;10.13;3.10;;;8.00;99.90;;;;;;4929719;29;20095;-84
2023/11/15 06:49:43;;;;;;;11.93;3.30;;;8.50;99.90;;;;;;4932679;29;20045;-84
2023/11/15 06:52:09;;;;;;;13.27;3.85;;;8.60;99.90;;;;;;4917131;29;20124;-84
2023/11/15 06:54:36;;;;;;;8.95;3.47;;;8.00;99.90;;;;;;4932593;29;20135;-84
2023/11/15 06:57:06;;;;;;;10.73;3.28;;;8.00;99.90;;;;;;4947732;29;20069;-83
2023/11/15 06:59:32;;;;;;;7.15;3.25;;;8.00;99.90;;;;;;4923703;29;20088;-84
2023/11/15 07:02:00;;;;;;;13.38;3.40;;;8.00;99.90;;;;;;4919431;29;20048;-84
2023/11/15 07:04:27;;;;;;;11.20;3.58;;;8.00;99.90;;;;;;4933767;29;20040;-82
2023/11/15 07:06:53;;;;;;;7.25;3.28;;;8.00;99.90;;;;;;4931620;29;20458;-82
2023/11/15 07:09:20;;;;;;;9.45;3.10;;;8.00;99.90;;;;;;4930337;29;20048;-83
2023/11/15 07:11:51;;;;;;;7.03;2.97;;;8.30;99.90;;;;;;4916824;29;20123;-83
2023/11/15 07:14:20;;;;;;;10.05;3.30;;;8.00;99.90;;;;;;4914109;29;20740;-83
2023/11/15 07:16:58;;;;;;;6.57;3.15;;;8.00;99.90;;;;;;4923117;29;20827;-83
2023/11/15 07:19:25;;;;;;;9.05;3.17;;;8.10;99.90;;;;;;4933760;29;20044;-82
2023/11/15 07:21:52;;;;;;;7.20;3.30;;;8.00;99.90;;;;;;4916636;29;20108;-83
2023/11/15 07:24:20;;;;;;;9.50;3.53;;;8.10;99.90;;;;;;4920991;29;20151;-83
2023/11/15 07:26:47;;;;;;;10.10;3.53;;;9.00;99.90;;;;;;4916463;29;20051;-82
2023/11/15 07:29:19;;;;;;;7.43;3.13;;;8.10;99.90;;;;;;4924214;29;20052;-81
2023/11/15 07:31:52;;;;;;;9.27;2.92;;;8.10;99.90;;;;;;4916085;29;20089;-82
2023/11/15 07:34:23;;;;;;;8.75;3.33;;;8.10;99.90;;;;;;4939780;29;20132;-81
2023/11/15 07:36:50;;;;;;;9.50;3.25;;;8.10;99.90;;;;;;4928651;29;20498;-82
2023/11/15 07:39:18;;;;;;;12.30;3.58;;;8.10;99.90;;;;;;4914592;29;20477;-81
2023/11/15 07:41:45;;;;;;;9.35;3.97;;;8.20;99.90;;;;;;4935125;29;20564;-82
2023/11/15 07:44:15;;;;;;;7.65;2.92;;;8.50;99.90;;;;;;4910173;29;20040;-82
2023/11/15 07:46:46;;;;;;;11.25;3.10;;;8.20;99.90;;;;;;4921765;29;20424;-82
2023/11/15 07:49:13;;;;;;;5.72;3.00;;;8.20;99.90;;;;;;4905131;29;20037;-81
2023/11/15 07:51:39;;;;;;;6.13;2.95;;;8.30;99.90;;;;;;4922357;29;20415;-81
2023/11/15 07:54:07;;;;;;;7.72;3.20;;;8.30;99.90;;;;;;4934778;29;20119;-81
2023/11/15 07:56:34;;;;;;;9.40;3.22;;;8.30;99.90;;;;;;4940674;29;20075;-81
2023/11/15 07:59:00;;;;;;;7.80;3.17;;;9.00;99.90;;;;;;4922316;29;20073;-82
2023/11/15 08:01:27;;;;;;;7.60;3.20;;;8.40;99.90;;;;;;4905756;29;20068;-82
2023/11/15 08:03:54;;;;;;;8.02;3.08;;;8.30;99.90;;;;;;4943783;29;20072;-82
2023/11/15 08:06:20;;;;;;;5.47;2.72;;;8.30;99.90;;;;;;4916202;29;20371;-83
2023/11/15 08:08:48;;;;;;;8.68;3.30;;;8.40;99.90;;;;;;4915970;29;20044;-83
2023/11/15 08:11:14;;;;;;;8.00;3.67;;;8.40;99.90;;;;;;4920333;29;20087;-82
2023/11/15 08:13:43;;;;;;;11.82;3.60;;;8.40;99.90;;;;;;4920629;29;20053;-82
2023/11/15 08:16:12;;;;;;;13.02;3.50;;;8.40;99.90;;;;;;4915547;29;20387;-82
2023/11/15 08:18:39;;;;;;;8.57;3.80;;;8.50;99.90;;;;;;4947327;29;20044;-82
2023/11/15 08:21:09;;;;;;;6.82;3.35;;;8.50;99.90;;;;;;4927810;29;20416;-82
2023/11/15 08:23:37;;;;;;;9.98;3.78;;;8.50;99.90;;;;;;4924802;29;20059;-83
2023/11/15 08:26:05;;;;;;;8.85;3.75;;;8.50;99.90;;;;;;4912427;29;20045;-82
2023/11/15 08:28:32;;;;;;;7.07;3.58;;;8.50;99.90;;;;;;4912193;29;20040;-82
2023/11/15 08:30:59;;;;;;;6.07;3.50;;;8.60;99.90;;;;;;4929775;29;20128;-82
2023/11/15 08:33:27;;;;;;;8.35;3.40;;;8.90;99.90;;;;;;4932061;29;20123;-83
2023/11/15 08:35:54;;;;;;;5.55;3.13;;;9.40;99.90;;;;;;4909328;29;20045;-81
2023/11/15 08:38:24;;;;;;;6.60;3.03;;;9.40;99.90;;;;;;4928659;29;20036;-82
2023/11/15 08:40:52;;;;;;;6.18;3.42;;;8.60;99.90;;;;;;4915641;29;20079;-82
2023/11/15 08:43:19;;;;;;;8.40;3.20;;;8.70;99.90;;;;;;4930005;29;20040;-83
2023/11/15 08:45:46;;;;;;;6.35;3.08;;;8.70;99.90;;;;;;4914708;29;20128;-83
2023/11/15 08:48:17;;;;;;;9.18;3.38;;;8.70;99.90;;;;;;4930997;29;20041;-82
2023/11/15 08:50:44;;;;;;;8.23;3.47;;;9.40;99.90;;;;;;4914745;29;20079;-83
2023/11/15 08:53:11;;;;;;;8.05;2.88;;;8.80;99.90;;;;;;4919233;29;20501;-83
2023/11/15 08:55:40;;;;;;;7.68;4.20;;;8.80;99.90;;;;;;4933160;29;20446;-82
2023/11/15 08:58:07;;;;;;;9.25;4.28;;;8.90;99.90;;;;;;4928088;29;20482;-83
2023/11/15 09:00:36;;;;;;;7.72;4.30;;;8.90;99.90;;;;;;4941002;29;20056;-82
2023/11/15 09:03:06;;;;;;;9.65;3.35;;;8.90;99.90;;;;;;4919093;29;20059;-83
2023/11/15 09:05:33;;;;;;;7.18;3.45;;;8.90;99.90;;;;;;4927713;29;20040;-82
2023/11/15 09:08:00;;;;;;;10.27;3.80;;;9.00;99.90;;;;;;4933247;29;20445;-82
2023/11/15 09:10:27;;;;;;;8.77;3.83;;;9.20;99.90;;;;;;4932943;29;20067;-82
2023/11/15 09:12:57;;;;;;;15.60;3.95;;;9.20;99.90;;;;;;4914337;29;20072;-83
2023/11/15 09:15:24;;;;;;;7.25;3.90;;;9.50;99.90;;;;;;4913589;29;20488;-83
2023/11/15 09:17:51;;;;;;;10.68;4.20;;;9.00;99.90;;;;;;4915621;29;20151;-83
2023/11/15 09:20:25;;;;;;;9.45;3.90;;;9.00;99.90;;;;;;4924908;29;20085;-82
2023/11/15 09:22:57;;;;;;;6.18;3.42;;;9.00;99.90;;;;;;4932495;29;20053;-82
2023/11/15 09:25:26;;;;;;;7.35;2.85;;;9.00;99.90;;;;;;4933116;29;20127;-83
2023/11/15 09:27:56;;;;;;;9.63;3.30;;;8.90;99.90;;;;;;4916509;29;20085;-82
2023/11/15 09:30:25;;;;;;;6.35;2.75;;;9.00;99.90;;;;;;4914573;29;20040;-82
2023/11/15 09:32:53;;;;;;;6.80;2.90;;;8.90;99.90;;;;;;4914086;29;20120;-82
2023/11/15 09:35:27;;;;;;;8.05;3.05;;;8.90;99.90;;;;;;4930388;29;20170;-82
2023/11/15 09:37:58;;;;;;;5.72;2.17;;;8.90;99.90;;;;;;4922365;29;20052;-83
2023/11/15 09:40:26;;;;;;;11.23;2.75;;;9.60;99.90;;;;;;4941233;29;20045;-82
2023/11/15 09:42:55;;;;;;;11.48;2.75;;;8.90;99.90;;;;;;4913950;29;20047;-82
2023/11/15 09:45:23;;;;;;;7.75;2.40;;;9.00;99.90;;;;;;4920781;29;20429;-82
2023/11/15 09:47:51;;;;;;;8.00;2.47;;;9.00;99.90;;;;;;4933535;29;20044;-83
2023/11/15 09:50:26;;;;;;;10.95;2.30;;;9.20;99.90;;;;;;4917118;29;20494;-82
2023/11/15 09:52:55;;;;;;;6.28;2.15;;;9.10;99.90;;;;;;4927599;29;20036;-82
2023/11/15 09:55:24;;;;;;;6.85;2.40;;;9.30;99.90;;;;;;4930136;29;20092;-81
2023/11/15 09:57:52;;;;;;;12.60;2.63;;;9.20;99.90;;;;;;4915700;29;20435;-81
2023/11/15 10:00:21;;;;;;;16.58;2.85;;;9.50;99.90;;;;;;4921787;29;20199;-82
2023/11/15 10:02:50;;;;;;;9.82;2.80;;;9.30;99.90;;;;;;4929617;29;20083;-82
2023/11/15 10:05:26;;;;;;;8.90;2.42;;;9.50;99.90;;;;;;4913834;29;20043;-82
2023/11/15 10:08:15;;;;;;;7.32;2.45;;;9.40;99.90;;;;;;4917234;29;20060;-84
2023/11/15 10:10:46;;;;;;;10.80;2.70;;;9.50;99.90;;;;;;4934894;29;20457;-81
2023/11/15 10:13:14;;;;;;;8.52;2.47;;;9.60;99.90;;;;;;4919769;29;20037;-81
2023/11/15 10:15:43;;;;;;;8.20;2.83;;;9.60;99.90;;;;;;4914312;29;20072;-81
2023/11/15 10:18:14;;;;;;;9.20;2.40;;;9.70;99.90;;;;;;4937812;29;20068;-81
2023/11/15 10:20:42;;;;;;;14.73;3.50;;;9.80;99.90;;;;;;4920092;29;20043;-81
2023/11/15 10:23:13;;;;;;;6.35;2.17;;;9.80;99.90;;;;;;4909228;29;20041;-81
2023/11/15 10:25:54;;;;;;;6.22;2.00;;;10.10;99.90;;;;;;4922773;29;20418;-81
2023/11/15 10:28:21;;;;;;;7.60;2.05;;;9.80;99.90;;;;;;4924254;29;20041;-81
2023/11/15 10:31:04;;;;;;;5.00;2.00;;;10.50;99.90;;;;;;4913753;29;20083;-81
2023/11/15 10:33:34;;;;;;;5.72;1.60;;;9.90;99.90;;;;;;4930257;29;20052;-81
2023/11/15 10:36:17;;;;;;;6.28;1.92;;;9.90;99.90;;;;;;4921136;29;20037;-82
2023/11/15 10:38:44;;;;;;;3.08;1.38;;;9.90;99.90;;;;;;4932368;29;20048;-83
2023/11/15 10:41:17;;;;;;;6.00;2.25;;;10.00;99.90;;;;;;4932844;29;20505;-83
2023/11/15 10:43:50;;;;;;;4.63;1.80;;;10.10;99.90;;;;;;4930710;29;20048;-83
2023/11/15 10:46:39;;;;;;;5.18;1.70;;;10.00;99.90;;;;;;4933850;29;20055;-83
2023/11/15 10:49:09;;;;;;;4.80;1.80;;;10.10;99.90;;;;;;4932536;29;20640;-82
2023/11/15 10:51:44;;;;;;;9.40;1.60;;;10.30;99.90;;;;;;4922592;29;20509;-82
2023/11/15 10:54:13;;;;;;;5.00;1.60;;;10.30;99.90;;;;;;4923692;29;20048;-83
2023/11/15 10:56:41;;;;;;;4.57;1.67;;;10.30;99.90;;;;;;4924698;29;20048;-82
2023/11/15 10:59:10;;;;;;;6.18;1.83;;;10.30;99.90;;;;;;4929166;29;20104;-82
2023/11/15 11:01:37;;;;;;;4.40;1.70;;;10.80;99.90;;;;;;4935088;29;20072;-82
2023/11/15 11:04:06;;;;;;;7.38;1.65;;;10.40;99.90;;;;;;4904706;29;20509;-82
2023/11/15 11:06:39;;;;;;;3.58;1.50;;;10.30;99.90;;;;;;4916433;29;20395;-83
2023/11/15 11:09:22;;;;;;;5.75;1.75;;;10.40;99.90;;;;;;4931392;29;20051;-83
2023/11/15 11:12:00;;;;;;;6.05;1.80;;;10.40;99.90;;;;;;4905612;29;20040;-82
2023/11/15 11:14:27;;;;;;;4.82;1.60;;;10.40;99.90;;;;;;4932358;29;20513;-83
2023/11/15 11:16:56;;;;;;;5.05;2.00;;;10.50;99.90;;;;;;4927222;29;20049;-81
2023/11/15 11:19:25;;;;;;;4.22;1.98;;;10.60;99.90;;;;;;4929388;29;20036;-81
2023/11/15 11:22:02;;;;;;;3.47;1.70;;;10.90;99.90;;;;;;4906878;29;20040;-81
2023/11/15 11:24:31;;;;;;;5.13;2.20;;;10.60;99.90;;;;;;4931686;29;20084;-82
2023/11/15 11:27:16;;;;;;;5.32;2.00;;;10.20;99.90;;;;;;4919122;29;20051;-81
2023/11/15 11:29:49;;;;;;;5.13;2.47;;;10.20;99.90;;;;;;4916149;29;20497;-81
2023/11/15 11:32:31;;;;;;;6.72;2.40;;;10.10;99.90;;;;;;4940559;29;20079;-82
2023/11/15 11:35:00;;;;;;;3.60;2.20;;;10.10;99.90;;;;;;4922758;29;20041;-81
2023/11/15 11:37:44;;;;;;;3.30;1.33;;;10.00;99.90;;;;;;4927592;29;20409;-81
2023/11/15 11:40:14;;;;;;;2.90;1.10;;;10.00;99.90;;;;;;4930320;29;20562;-82
2023/11/15 11:42:44;;;;;;;5.50;1.70;;;9.80;99.90;;;;;;4915409;29;20063;-81
2023/11/15 11:45:15;;;;;;;2.67;1.15;;;9.90;99.90;;;;;;4942849;29;20048;-81
2023/11/15 11:47:46;;;;;;;5.03;0.80;;;9.80;99.90;;;;;;4903720;29;20037;-81
2023/11/15 11:50:22;;;;;;;3.47;1.05;;;9.80;99.90;;;;;;4906673;29;20422;-81
2023/11/15 11:52:56;;;;;;;4.32;1.17;;;9.80;99.90;;;;;;4923814;29;20474;-81
2023/11/15 11:55:24;;;;;;;9.50;1.30;;;9.80;99.90;;;;;;4915450;29;20052;-81
2023/11/15 11:57:51;;;;;;;2.70;1.00;;;9.80;99.90;;;;;;4916153;29;20065;-81
2023/11/15 12:00:20;;;;;;;4.60;0.65;;;10.40;99.90;;;;;;4922536;29;20060;-82
2023/11/15 12:02:49;;;;;;;6.55;1.35;;;9.80;99.90;;;;;;4916591;29;20394;-83
2023/11/15 12:05:23;;;;;;;5.75;1.20;;;9.80;99.90;;;;;;4926433;29;20067;-83
2023/11/15 12:07:52;;;;;;;5.05;1.20;;;9.90;99.90;;;;;;4915677;29;20070;-82
2023/11/15 12:10:19;;;;;;;4.88;1.15;;;9.80;99.90;;;;;;4928014;29;20037;-83
2023/11/15 12:12:57;;;;;;;9.02;1.38;;;10.10;99.90;;;;;;4940336;29;20040;-83
2023/11/15 12:15:27;;;;;;;4.55;1.25;;;9.80;99.90;;;;;;4935659;29;20040;-82
2023/11/15 12:17:58;;;;;;;4.30;1.13;;;9.80;99.90;;;;;;4923162;29;20049;-82
2023/11/15 12:20:38;;;;;;;4.30;1.00;;;9.80;99.90;;;;;;4915410;29;20076;-82
2023/11/15 12:23:09;;;;;;;4.25;1.02;;;9.80;99.90;;;;;;4932516;29;20046;-82
2023/11/15 12:25:52;;;;;;;7.60;1.10;;;9.80;99.90;;;;;;4926275;29;20057;-83
2023/11/15 12:28:25;;;;;;;5.90;1.05;;;9.80;99.90;;;;;;4926509;29;20091;-82
2023/11/15 12:30:53;;;;;;;4.07;1.10;;;9.70;99.90;;;;;;4930993;29;20048;-83
2023/11/15 12:33:20;;;;;;;4.53;1.13;;;10.30;99.90;;;;;;4925832;29;20136;-83
2023/11/15 12:35:49;;;;;;;4.55;1.27;;;9.80;99.90;;;;;;4926053;29;20147;-83
2023/11/15 12:38:15;;;;;;;3.70;1.00;;;9.70;99.90;;;;;;4926792;29;20040;-82
2023/11/15 12:40:44;;;;;;;4.80;1.30;;;9.80;99.90;;;;;;4922336;29;20044;-83
2023/11/15 12:43:14;;;;;;;8.07;1.10;;;9.90;99.90;;;;;;4923288;29;20053;-82
2023/11/15 12:45:43;;;;;;;5.78;1.13;;;10.00;99.90;;;;;;4929659;29;20052;-82
2023/11/15 12:48:10;;;;;;;8.02;1.30;;;10.10;99.90;;;;;;4928550;29;20052;-82
2023/11/15 12:50:41;;;;;;;6.22;1.38;;;10.20;99.90;;;;;;4906746;29;20053;-82
2023/11/15 12:53:10;;;;;;;6.60;1.25;;;10.30;99.90;;;;;;4927673;29;20044;-82
2023/11/15 12:55:53;;;;;;;4.18;1.13;;;10.30;99.90;;;;;;4940116;29;20118;-82
2023/11/15 12:58:22;;;;;;;7.95;1.30;;;10.30;99.90;;;;;;4904002;29;20036;-82
2023/11/15 13:01:00;;;;;;;5.35;1.30;;;10.30;99.90;;;;;;4916618;29;20414;-82
2023/11/15 13:03:30;;;;;;;6.50;1.20;;;10.30;99.90;;;;;;4905996;29;20045;-82